createdAt,value
2023-02-15T00:02:10.231Z,36.67
2023-02-15T00:04:47.392Z,33.87
2023-02-15T00:07:22.041Z,35.67
2023-02-15T00:09:52.015Z,35.63
2023-02-15T00:12:19.753Z,36.70
2023-02-15T00:14:49.427Z,35.27
2023-02-15T00:17:18.148Z,35.63
2023-02-15T00:19:45.872Z,34.97
2023-02-15T00:22:13.807Z,36.53
2023-02-15T00:25:03.219Z,34.33
2023-02-15T00:27:37.704Z,33.60
2023-02-15T00:30:07.934Z,33.90
2023-02-15T00:32:42.209Z,34.97
2023-02-15T00:35:10.697Z,36.23
2023-02-15T00:37:39.530Z,35.30
2023-02-15T00:40:09.273Z,34.73
2023-02-15T00:42:41.718Z,32.70
2023-02-15T00:45:09.890Z,34.03
2023-02-15T00:47:37.226Z,34.27
2023-02-15T00:50:05.691Z,33.13
2023-02-15T00:52:35.594Z,32.47
2023-02-15T00:55:05.137Z,32.50
2023-02-15T00:57:32.878Z,32.50
2023-02-15T01:00:02.390Z,32.40
2023-02-15T01:02:38.250Z,33.43
2023-02-15T01:05:12.190Z,32.43
2023-02-15T01:07:41.158Z,31.90
2023-02-15T01:10:11.792Z,32.40
2023-02-15T01:12:41.488Z,34.70
2023-02-15T01:15:17.052Z,31.17
2023-02-15T01:17:47.688Z,29.97
2023-02-15T01:20:21.097Z,33.40
2023-02-15T01:23:14.412Z,28.97
2023-02-15T01:25:46.907Z,31.47
2023-02-15T01:28:16.111Z,27.57
2023-02-15T01:30:46.899Z,31.80
2023-02-15T01:33:22.577Z,30.13
2023-02-15T01:35:50.635Z,31.53
2023-02-15T01:38:18.773Z,31.83
2023-02-15T01:40:48.753Z,29.73
2023-02-15T01:43:22.179Z,30.30
2023-02-15T01:45:56.720Z,31.83
2023-02-15T01:48:28.304Z,34.17
2023-02-15T01:51:05.387Z,32.60
2023-02-15T01:53:49.181Z,32.87
2023-02-15T01:56:24.348Z,31.80
2023-02-15T01:58:54.512Z,31.03
2023-02-15T02:01:24.125Z,29.43
2023-02-15T02:04:13.502Z,30.90
2023-02-15T02:06:42.647Z,24.40
2023-02-15T02:09:12.561Z,31.70
2023-02-15T02:11:47.629Z,32.47
2023-02-15T02:14:15.916Z,31.43
2023-02-15T02:16:58.307Z,30.43
2023-02-15T02:19:42.323Z,32.27
2023-02-15T02:22:18.320Z,32.47
2023-02-15T02:24:55.407Z,30.87
2023-02-15T02:27:46.164Z,29.87
2023-02-15T02:30:32.430Z,29.20
2023-02-15T02:35:33.988Z,26.67
2023-02-15T02:38:14.184Z,30.17
2023-02-15T02:40:51.911Z,31.40
2023-02-15T02:43:34.184Z,32.07
2023-02-15T02:46:15.834Z,29.73
2023-02-15T02:48:43.787Z,30.80
2023-02-15T02:51:23.659Z,32.10
2023-02-15T02:54:13.498Z,31.57
2023-02-15T02:56:49.308Z,26.60
2023-02-15T02:59:20.978Z,28.90
2023-02-15T03:01:54.862Z,30.13
2023-02-15T03:04:28.655Z,28.73
2023-02-15T03:07:36.994Z,29.57
2023-02-15T03:10:15.633Z,31.67
2023-02-15T03:12:58.508Z,30.93
2023-02-15T03:15:53.085Z,29.80
2023-02-15T03:18:28.057Z,29.10
2023-02-15T03:21:25.330Z,28.93
2023-02-15T03:24:33.431Z,23.17
2023-02-15T03:27:10.510Z,26.97
2023-02-15T03:29:44.165Z,30.00
2023-02-15T03:32:14.536Z,29.83
2023-02-15T03:34:42.311Z,29.70
2023-02-15T03:37:12.943Z,30.30
2023-02-15T03:39:48.677Z,32.13
2023-02-15T03:42:21.710Z,27.03
2023-02-15T03:45:14.064Z,27.27
2023-02-15T03:48:11.350Z,26.53
2023-02-15T03:51:10.907Z,27.40
2023-02-15T03:53:41.228Z,27.03
2023-02-15T03:56:15.909Z,26.57
2023-02-15T03:59:03.363Z,26.57
2023-02-15T04:04:48.365Z,25.53
2023-02-15T04:07:17.482Z,28.00
2023-02-15T04:10:03.790Z,27.23
2023-02-15T04:12:32.501Z,25.53
2023-02-15T04:15:24.582Z,24.90
2023-02-15T04:18:08.413Z,25.87
2023-02-15T04:20:59.617Z,24.17
2023-02-15T04:23:51.071Z,26.33
2023-02-15T04:26:20.922Z,24.97
2023-02-15T04:28:50.125Z,25.63
2023-02-15T04:31:18.554Z,25.97
2023-02-15T04:34:01.150Z,25.90
2023-02-15T04:36:32.411Z,26.37
2023-02-15T04:39:01.431Z,26.53
2023-02-15T04:41:32.185Z,26.23
2023-02-15T04:44:08.695Z,25.93
2023-02-15T04:46:36.888Z,25.33
2023-02-15T04:49:08.583Z,26.17
2023-02-15T04:51:36.138Z,25.87
2023-02-15T04:54:03.441Z,26.80
2023-02-15T04:56:34.368Z,26.83
2023-02-15T04:59:06.657Z,26.37
2023-02-15T05:01:36.172Z,25.30
2023-02-15T05:04:04.909Z,26.50
2023-02-15T05:06:32.593Z,27.03
2023-02-15T05:09:00.285Z,26.27
2023-02-15T05:11:28.927Z,27.07
2023-02-15T05:13:56.286Z,26.03
2023-02-15T05:16:27.573Z,25.70
2023-02-15T05:18:56.407Z,26.67
2023-02-15T05:21:23.862Z,26.47
2023-02-15T05:23:51.317Z,27.73
2023-02-15T05:26:39.414Z,28.23
2023-02-15T05:29:06.796Z,28.93
2023-02-15T05:31:34.694Z,28.87
2023-02-15T05:34:10.018Z,27.57
2023-02-15T05:36:37.524Z,27.57
2023-02-15T05:39:07.006Z,27.77
2023-02-15T05:41:35.012Z,29.80
2023-02-15T05:44:03.429Z,26.13
2023-02-15T05:46:30.838Z,28.60
2023-02-15T05:48:59.646Z,26.93
2023-02-15T05:51:27.352Z,26.73
2023-02-15T05:53:57.651Z,28.20
2023-02-15T05:56:24.991Z,30.20
2023-02-15T05:58:59.728Z,30.77
2023-02-15T06:01:27.019Z,30.47
2023-02-15T06:03:57.846Z,27.40
2023-02-15T06:06:27.107Z,28.97
2023-02-15T06:08:54.669Z,29.13
2023-02-15T06:11:21.959Z,29.10
2023-02-15T06:13:49.481Z,29.90
2023-02-15T06:16:19.975Z,29.40
2023-02-15T06:18:49.514Z,29.90
2023-02-15T06:21:17.022Z,30.30
2023-02-15T06:23:44.928Z,31.00
2023-02-15T06:26:12.287Z,28.17
2023-02-15T06:28:42.064Z,29.30
2023-02-15T06:31:11.702Z,28.73
2023-02-15T06:33:39.602Z,28.43
2023-02-15T06:39:04.071Z,29.07
2023-02-15T06:41:32.750Z,27.73
2023-02-15T06:44:00.147Z,27.30
2023-02-15T06:46:28.845Z,28.00
2023-02-15T06:48:59.572Z,27.57
2023-02-15T06:51:27.293Z,29.43
2023-02-15T06:53:54.613Z,30.93
2023-02-15T06:56:22.245Z,30.97
2023-02-15T06:58:50.767Z,31.53
2023-02-15T07:01:19.187Z,31.13
2023-02-15T07:03:47.768Z,28.60
2023-02-15T07:06:16.409Z,35.85
2023-02-15T07:08:48.260Z,29.93
2023-02-15T07:11:36.969Z,28.40
2023-02-15T07:14:04.894Z,31.07
2023-02-15T07:16:35.466Z,30.67
2023-02-15T07:19:02.980Z,28.57
2023-02-15T07:21:30.510Z,28.37
2023-02-15T07:24:00.352Z,26.87
2023-02-15T07:26:27.811Z,27.83
2023-02-15T07:28:56.878Z,28.40
2023-02-15T07:31:25.601Z,27.00
2023-02-15T07:33:54.364Z,28.55
2023-02-15T07:36:22.592Z,26.77
2023-02-15T07:39:22.531Z,28.10
2023-02-15T07:41:56.511Z,33.43
2023-02-15T07:44:37.242Z,29.47
2023-02-15T07:47:04.663Z,29.10
2023-02-15T07:49:32.385Z,29.97
2023-02-15T07:52:02.751Z,29.33
2023-02-15T07:54:32.238Z,32.37
2023-02-15T07:57:02.365Z,32.73
2023-02-15T07:59:30.480Z,31.33
2023-02-15T08:02:01.813Z,31.00
2023-02-15T08:04:30.571Z,31.57
2023-02-15T08:07:00.900Z,31.17
2023-02-15T08:09:30.605Z,29.33
2023-02-15T08:11:59.338Z,28.80
2023-02-15T08:14:27.092Z,29.97
2023-02-15T08:16:58.925Z,28.73
2023-02-15T08:22:17.151Z,29.07
2023-02-15T08:24:44.479Z,29.20
2023-02-15T08:27:35.833Z,30.43
2023-02-15T08:30:05.965Z,31.73
2023-02-15T08:32:34.750Z,29.33
2023-02-15T08:35:03.001Z,26.50
2023-02-15T08:37:30.344Z,25.60
2023-02-15T08:40:48.862Z,23.80
2023-02-15T08:43:19.121Z,27.83
2023-02-15T08:45:47.265Z,23.67
2023-02-15T08:48:15.283Z,22.07
2023-02-15T08:50:42.608Z,22.27
2023-02-15T08:53:15.517Z,20.37
2023-02-15T08:55:47.578Z,21.27
2023-02-15T09:01:12.686Z,21.27
2023-02-15T09:03:40.785Z,19.37
2023-02-15T09:06:09.332Z,19.30
2023-02-15T09:08:37.034Z,18.00
2023-02-15T09:11:08.523Z,16.47
2023-02-15T09:13:36.138Z,18.03
2023-02-15T09:16:10.496Z,19.00
2023-02-15T09:18:39.399Z,20.50
2023-02-15T09:21:15.521Z,20.10
2023-02-15T09:23:46.361Z,20.43
2023-02-15T09:26:18.380Z,19.80
2023-02-15T09:28:46.153Z,20.33
2023-02-15T09:31:18.559Z,20.33
2023-02-15T09:33:49.209Z,20.80
2023-02-15T09:36:21.372Z,20.17
2023-02-15T09:38:49.135Z,19.57
2023-02-15T09:41:22.702Z,18.63
2023-02-15T09:44:11.516Z,18.23
2023-02-15T09:46:41.937Z,18.20
2023-02-15T09:49:18.959Z,17.47
2023-02-15T09:52:15.409Z,18.67
2023-02-15T09:55:33.206Z,17.33
2023-02-15T09:58:27.486Z,18.43
2023-02-15T10:01:05.483Z,18.70
2023-02-15T10:03:41.581Z,19.20
2023-02-15T10:06:11.534Z,18.57
2023-02-15T10:08:51.883Z,18.80
2023-02-15T10:11:40.073Z,19.13
2023-02-15T10:14:16.589Z,19.10
2023-02-15T10:17:03.330Z,20.13
2023-02-15T10:19:43.198Z,18.70
2023-02-15T10:22:10.498Z,20.03
2023-02-15T10:24:53.145Z,20.97
2023-02-15T10:27:22.101Z,20.30
2023-02-15T10:30:05.880Z,20.23
2023-02-15T10:32:38.407Z,20.20
2023-02-15T10:35:13.498Z,21.10
2023-02-15T10:37:48.526Z,20.83
2023-02-15T10:40:35.707Z,19.40
2023-02-15T10:43:17.429Z,19.60
2023-02-15T10:45:49.127Z,19.83
2023-02-15T10:48:43.821Z,19.33
2023-02-15T10:51:18.206Z,19.23
2023-02-15T10:53:46.087Z,18.20
2023-02-15T10:56:17.540Z,18.27
2023-02-15T10:58:49.046Z,17.47
2023-02-15T11:01:21.057Z,18.27
2023-02-15T11:04:03.813Z,19.30
2023-02-15T11:06:32.167Z,20.13
2023-02-15T11:09:05.577Z,19.77
2023-02-15T11:11:38.007Z,20.37
2023-02-15T11:14:07.347Z,19.63
2023-02-15T11:16:39.599Z,19.23
2023-02-15T11:19:13.231Z,20.50
2023-02-15T11:21:51.100Z,20.67
2023-02-15T11:24:19.689Z,25.50
2023-02-15T11:26:50.114Z,22.27
2023-02-15T11:29:25.147Z,21.10
2023-02-15T11:31:56.918Z,22.47
2023-02-15T11:34:35.183Z,22.73
2023-02-15T11:37:23.477Z,23.00
2023-02-15T11:39:55.914Z,23.93
2023-02-15T11:42:25.439Z,23.27
2023-02-15T11:45:16.375Z,25.87
2023-02-15T11:47:43.967Z,21.30
2023-02-15T11:50:19.548Z,21.67
2023-02-15T11:52:47.107Z,21.87
2023-02-15T11:55:19.596Z,22.30
2023-02-15T11:57:51.078Z,22.00
2023-02-15T12:00:29.015Z,22.30
2023-02-15T12:02:57.395Z,22.77
2023-02-15T12:05:28.709Z,22.27
2023-02-15T12:08:19.646Z,22.60
2023-02-15T12:11:02.345Z,22.83
2023-02-15T12:13:33.722Z,23.33
2023-02-15T12:16:06.961Z,24.53
2023-02-15T12:18:37.665Z,23.83
2023-02-15T12:21:16.952Z,23.80
2023-02-15T12:23:54.147Z,23.23
2023-02-15T12:26:27.823Z,23.13
2023-02-15T12:28:59.870Z,23.73
2023-02-15T12:31:31.119Z,22.83
2023-02-15T12:34:00.543Z,21.17
2023-02-15T12:36:31.454Z,20.57
2023-02-15T12:39:08.538Z,21.07
2023-02-15T12:41:36.092Z,21.83
2023-02-15T12:44:19.683Z,21.60
2023-02-15T12:47:29.046Z,21.73
2023-02-15T12:50:12.232Z,22.37
2023-02-15T12:52:40.438Z,22.60
2023-02-15T12:55:22.492Z,23.87
2023-02-15T12:57:51.814Z,23.40
2023-02-15T13:00:44.246Z,24.07
2023-02-15T13:03:25.241Z,24.73
2023-02-15T13:06:05.272Z,24.83
2023-02-15T13:08:35.031Z,26.17
2023-02-15T13:11:05.359Z,26.57
2023-02-15T13:13:55.095Z,26.57
2023-02-15T13:16:51.872Z,32.90
2023-02-15T13:19:21.637Z,27.07
2023-02-15T13:21:52.052Z,26.07
2023-02-15T13:24:54.401Z,27.30
2023-02-15T13:27:25.717Z,26.93
2023-02-15T13:29:59.533Z,25.73
2023-02-15T13:32:38.124Z,25.93
2023-02-15T13:35:09.039Z,25.47
2023-02-15T13:37:59.488Z,26.43
2023-02-15T13:40:32.220Z,25.27
2023-02-15T13:43:07.324Z,25.73
2023-02-15T13:45:39.502Z,26.30
2023-02-15T13:48:22.157Z,26.50
2023-02-15T13:50:57.820Z,27.10
2023-02-15T13:53:41.137Z,27.43
2023-02-15T13:56:08.888Z,26.57
2023-02-15T13:58:42.033Z,27.23
2023-02-15T14:01:10.218Z,26.60
2023-02-15T14:03:44.580Z,24.57
2023-02-15T14:06:28.529Z,25.37
2023-02-15T14:09:14.726Z,24.90
2023-02-15T14:11:44.981Z,25.47
2023-02-15T14:14:34.871Z,24.93
2023-02-15T14:19:56.644Z,25.90
2023-02-15T14:22:39.492Z,26.80
2023-02-15T14:25:30.985Z,27.63
2023-02-15T14:28:02.564Z,28.63
2023-02-15T14:30:34.722Z,28.13
2023-02-15T14:33:26.265Z,26.73
2023-02-15T14:35:59.572Z,29.90
2023-02-15T14:38:45.450Z,28.60
2023-02-15T14:41:25.450Z,27.40
2023-02-15T14:44:10.011Z,29.40
2023-02-15T14:46:41.336Z,31.33
2023-02-15T14:49:21.193Z,30.90
2023-02-15T14:51:48.644Z,30.87
2023-02-15T14:54:42.340Z,30.70
2023-02-15T14:57:13.373Z,31.00
2023-02-15T15:00:08.643Z,30.70
2023-02-15T15:02:49.895Z,29.73
2023-02-15T15:05:26.212Z,26.93
2023-02-15T15:08:04.197Z,27.83
2023-02-15T15:10:45.964Z,27.70
2023-02-15T15:13:31.943Z,25.73
2023-02-15T15:16:22.480Z,25.87
2023-02-15T15:18:50.524Z,26.13
2023-02-15T15:21:37.681Z,27.00
2023-02-15T15:24:07.615Z,26.97
2023-02-15T15:26:37.883Z,27.00
2023-02-15T15:29:06.144Z,27.33
2023-02-15T15:31:42.739Z,29.20
2023-02-15T15:34:21.682Z,28.23
2023-02-15T15:37:07.911Z,26.93
2023-02-15T15:39:43.803Z,24.07
2023-02-15T15:42:18.049Z,23.60
2023-02-15T15:45:00.980Z,23.37
2023-02-15T15:47:51.349Z,22.37
2023-02-15T15:50:23.487Z,22.90
2023-02-15T15:52:53.565Z,24.67
2023-02-15T15:55:25.478Z,23.47
2023-02-15T15:57:58.450Z,24.83
2023-02-15T16:00:46.477Z,24.77
2023-02-15T16:03:17.420Z,25.00
2023-02-15T16:05:44.866Z,25.37
2023-02-15T16:08:12.336Z,26.23
2023-02-15T16:10:39.843Z,25.97
2023-02-15T16:13:08.183Z,25.40
2023-02-15T16:15:37.363Z,27.43
2023-02-15T16:18:05.414Z,26.37
2023-02-15T16:20:35.072Z,27.03
2023-02-15T16:23:05.264Z,24.67
2023-02-15T16:26:05.077Z,24.93
2023-02-15T16:28:32.703Z,24.00
2023-02-15T16:31:07.699Z,24.30
2023-02-15T16:33:39.405Z,24.97
2023-02-15T16:36:10.899Z,25.83
2023-02-15T16:38:44.456Z,26.13
2023-02-15T16:41:12.953Z,26.97
2023-02-15T16:43:41.302Z,27.13
2023-02-15T16:46:12.338Z,25.67
2023-02-15T16:48:45.110Z,27.17
2023-02-15T16:51:20.663Z,26.13
2023-02-15T16:53:49.417Z,26.37
2023-02-15T16:56:19.208Z,27.47
2023-02-15T16:58:47.183Z,27.17
2023-02-15T17:01:16.416Z,27.73
2023-02-15T17:03:44.404Z,28.43
2023-02-15T17:06:27.534Z,28.17
2023-02-15T17:09:06.902Z,28.90
2023-02-15T17:11:37.093Z,28.07
2023-02-15T17:14:04.564Z,29.30
2023-02-15T17:16:34.340Z,27.87
2023-02-15T17:19:11.766Z,28.50
2023-02-15T17:21:43.041Z,27.97
2023-02-15T17:24:18.157Z,28.67
2023-02-15T17:26:52.036Z,28.30
2023-02-15T17:29:32.912Z,27.57
2023-02-15T17:32:02.454Z,28.67
2023-02-15T23:22:20.533Z,48.20
2023-02-15T23:24:50.577Z,47.80
2023-02-15T23:27:37.302Z,48.83
2023-02-15T23:30:05.823Z,49.13
2023-02-15T23:32:33.370Z,50.27
2023-02-15T23:35:00.679Z,50.63
2023-02-15T23:37:28.022Z,48.70
2023-02-15T23:40:13.865Z,49.33
2023-02-15T23:42:41.223Z,51.33
2023-02-15T23:45:19.134Z,51.00
2023-02-15T23:48:05.886Z,52.27
2023-02-15T23:50:33.213Z,50.90
